sensor_id;sensor_type;location;lat;lon;timestamp;P1;durP1;ratioP1;P2;durP2;ratioP2
6290;SDS011;3178;48.730;8.990;2022-09-01T00:02:11;20.97;;;17.10;;
6290;SDS011;3178;48.730;8.990;2022-09-01T00:04:39;20.07;;;17.20;;
6290;SDS011;3178;48.730;8.990;2022-09-01T00:07:05;24.03;;;15.90;;
6290;SDS011;3178;48.730;8.990;2022-09-01T00:09:32;24.97;;;18.70;;
6290;SDS011;3178;48.730;8.990;2022-09-01T00:11:58;24.90;;;20.00;;
6290;SDS011;3178;48.730;8.990;2022-09-01T00:14:26;29.77;;;21.60;;
6290;SDS011;3178;48.730;8.990;2022-09-01T00:16:54;28.00;;;20.13;;
6290;SDS011;3178;48.730;8.990;2022-09-01T00:19:20;25.50;;;19.83;;
6290;SDS011;3178;48.730;8.990;2022-09-01T00:21:47;22.70;;;19.60;;
6290;SDS011;3178;48.730;8.990;2022-09-01T00:24:13;24.30;;;18.10;;
6290;SDS011;3178;48.730;8.990;2022-09-01T00:26:40;27.53;;;19.80;;
6290;SDS011;3178;48.730;8.990;2022-09-01T00:29:06;32.73;;;22.67;;
6290;SDS011;3178;48.730;8.990;2022-09-01T00:31:32;25.03;;;21.07;;
6290;SDS011;3178;48.730;8.990;2022-09-01T00:33:58;29.43;;;22.40;;
6290;SDS011;3178;48.730;8.990;2022-09-01T00:36:24;31.40;;;21.90;;
6290;SDS011;3178;48.730;8.990;2022-09-01T00:38:49;25.73;;;20.33;;
6290;SDS011;3178;48.730;8.990;2022-09-01T00:41:16;29.97;;;21.17;;
6290;SDS011;3178;48.730;8.990;2022-09-01T00:43:46;30.27;;;20.73;;
6290;SDS011;3178;48.730;8.990;2022-09-01T00:46:22;33.10;;;24.37;;
6290;SDS011;3178;48.730;8.990;2022-09-01T00:48:50;32.77;;;23.87;;
6290;SDS011;3178;48.730;8.990;2022-09-01T00:51:20;33.47;;;24.80;;
6290;SDS011;3178;48.730;8.990;2022-09-01T00:53:45;33.63;;;24.40;;
6290;SDS011;3178;48.730;8.990;2022-09-01T00:56:12;32.83;;;26.67;;
6290;SDS011;3178;48.730;8.990;2022-09-01T00:58:38;35.83;;;25.80;;
6290;SDS011;3178;48.730;8.990;2022-09-01T01:01:05;38.93;;;25.80;;
6290;SDS011;3178;48.730;8.990;2022-09-01T01:03:32;37.40;;;26.90;;
6290;SDS011;3178;48.730;8.990;2022-09-01T01:06:00;57.40;;;26.80;;
6290;SDS011;3178;48.730;8.990;2022-09-01T01:08:29;38.87;;;24.90;;
6290;SDS011;3178;48.730;8.990;2022-09-01T01:11:10;30.67;;;23.87;;
6290;SDS011;3178;48.730;8.990;2022-09-01T01:16:19;36.60;;;23.97;;
6290;SDS011;3178;48.730;8.990;2022-09-01T01:18:45;34.63;;;26.20;;
6290;SDS011;3178;48.730;8.990;2022-09-01T01:21:17;30.07;;;25.27;;
6290;SDS011;3178;48.730;8.990;2022-09-01T01:26:50;29.50;;;22.83;;
6290;SDS011;3178;48.730;8.990;2022-09-01T01:29:16;29.63;;;23.30;;
6290;SDS011;3178;48.730;8.990;2022-09-01T01:31:42;34.27;;;24.77;;
6290;SDS011;3178;48.730;8.990;2022-09-01T01:34:08;29.60;;;22.23;;
6290;SDS011;3178;48.730;8.990;2022-09-01T01:36:35;31.30;;;24.07;;
6290;SDS011;3178;48.730;8.990;2022-09-01T01:39:04;35.90;;;23.17;;
6290;SDS011;3178;48.730;8.990;2022-09-01T01:41:35;30.90;;;24.40;;
6290;SDS011;3178;48.730;8.990;2022-09-01T01:44:04;37.03;;;23.70;;
6290;SDS011;3178;48.730;8.990;2022-09-01T01:46:32;28.67;;;23.67;;
6290;SDS011;3178;48.730;8.990;2022-09-01T01:48:59;31.87;;;23.37;;
6290;SDS011;3178;48.730;8.990;2022-09-01T01:51:26;33.80;;;24.57;;
6290;SDS011;3178;48.730;8.990;2022-09-01T01:53:55;34.90;;;24.60;;
6290;SDS011;3178;48.730;8.990;2022-09-01T01:56:23;28.73;;;22.70;;
6290;SDS011;3178;48.730;8.990;2022-09-01T01:58:50;33.60;;;25.47;;
6290;SDS011;3178;48.730;8.990;2022-09-01T02:01:24;32.50;;;26.47;;
6290;SDS011;3178;48.730;8.990;2022-09-01T02:03:53;34.33;;;24.40;;
6290;SDS011;3178;48.730;8.990;2022-09-01T02:06:20;33.23;;;25.70;;
6290;SDS011;3178;48.730;8.990;2022-09-01T02:08:48;29.93;;;25.03;;
6290;SDS011;3178;48.730;8.990;2022-09-01T02:11:20;32.87;;;27.00;;
6290;SDS011;3178;48.730;8.990;2022-09-01T02:13:46;35.80;;;26.37;;
6290;SDS011;3178;48.730;8.990;2022-09-01T02:16:14;38.13;;;25.77;;
6290;SDS011;3178;48.730;8.990;2022-09-01T02:18:42;35.60;;;28.40;;
6290;SDS011;3178;48.730;8.990;2022-09-01T02:21:12;34.03;;;27.73;;
6290;SDS011;3178;48.730;8.990;2022-09-01T02:23:44;37.00;;;27.57;;
6290;SDS011;3178;48.730;8.990;2022-09-01T02:26:11;37.03;;;28.73;;
6290;SDS011;3178;48.730;8.990;2022-09-01T02:28:38;39.87;;;29.80;;
6290;SDS011;3178;48.730;8.990;2022-09-01T02:31:06;43.20;;;30.07;;
6290;SDS011;3178;48.730;8.990;2022-09-01T02:33:33;39.97;;;29.40;;
6290;SDS011;3178;48.730;8.990;2022-09-01T02:36:01;45.20;;;30.97;;
6290;SDS011;3178;48.730;8.990;2022-09-01T02:38:32;46.87;;;31.90;;
6290;SDS011;3178;48.730;8.990;2022-09-01T02:40:58;37.73;;;29.03;;
6290;SDS011;3178;48.730;8.990;2022-09-01T02:43:26;42.67;;;30.17;;
6290;SDS011;3178;48.730;8.990;2022-09-01T02:45:54;38.53;;;29.83;;
6290;SDS011;3178;48.730;8.990;2022-09-01T02:48:30;38.10;;;29.07;;
6290;SDS011;3178;48.730;8.990;2022-09-01T02:51:11;38.10;;;26.87;;
6290;SDS011;3178;48.730;8.990;2022-09-01T02:53:38;35.67;;;28.70;;
6290;SDS011;3178;48.730;8.990;2022-09-01T02:56:06;41.10;;;28.17;;
6290;SDS011;3178;48.730;8.990;2022-09-01T02:58:36;39.63;;;26.43;;
6290;SDS011;3178;48.730;8.990;2022-09-01T03:03:46;35.80;;;25.87;;
6290;SDS011;3178;48.730;8.990;2022-09-01T03:06:12;39.87;;;26.80;;
6290;SDS011;3178;48.730;8.990;2022-09-01T03:08:38;31.43;;;25.17;;
6290;SDS011;3178;48.730;8.990;2022-09-01T03:11:05;33.90;;;25.73;;
6290;SDS011;3178;48.730;8.990;2022-09-01T03:13:36;32.10;;;24.83;;
6290;SDS011;3178;48.730;8.990;2022-09-01T03:16:03;31.53;;;24.10;;
6290;SDS011;3178;48.730;8.990;2022-09-01T03:18:29;29.97;;;22.77;;
6290;SDS011;3178;48.730;8.990;2022-09-01T03:20:55;26.47;;;21.17;;
6290;SDS011;3178;48.730;8.990;2022-09-01T03:23:21;22.30;;;18.53;;
6290;SDS011;3178;48.730;8.990;2022-09-01T03:25:49;29.07;;;21.60;;
6290;SDS011;3178;48.730;8.990;2022-09-01T03:28:15;32.70;;;22.83;;
6290;SDS011;3178;48.730;8.990;2022-09-01T03:30:45;24.30;;;18.73;;
6290;SDS011;3178;48.730;8.990;2022-09-01T03:33:13;25.97;;;19.47;;
6290;SDS011;3178;48.730;8.990;2022-09-01T03:35:41;27.10;;;21.07;;
6290;SDS011;3178;48.730;8.990;2022-09-01T03:38:08;22.90;;;17.73;;
6290;SDS011;3178;48.730;8.990;2022-09-01T03:40:36;32.80;;;18.73;;
6290;SDS011;3178;48.730;8.990;2022-09-01T03:43:03;24.00;;;18.43;;
6290;SDS011;3178;48.730;8.990;2022-09-01T03:45:33;23.80;;;19.00;;
6290;SDS011;3178;48.730;8.990;2022-09-01T03:48:02;22.53;;;17.93;;
6290;SDS011;3178;48.730;8.990;2022-09-01T03:50:33;21.17;;;18.23;;
6290;SDS011;3178;48.730;8.990;2022-09-01T03:53:03;24.50;;;20.10;;
6290;SDS011;3178;48.730;8.990;2022-09-01T03:55:31;23.37;;;17.57;;
6290;SDS011;3178;48.730;8.990;2022-09-01T03:58:02;22.77;;;18.40;;
6290;SDS011;3178;48.730;8.990;2022-09-01T04:00:30;25.97;;;19.27;;
6290;SDS011;3178;48.730;8.990;2022-09-01T04:03:00;23.57;;;18.80;;
6290;SDS011;3178;48.730;8.990;2022-09-01T04:05:27;23.97;;;16.63;;
6290;SDS011;3178;48.730;8.990;2022-09-01T04:07:55;21.63;;;18.13;;
6290;SDS011;3178;48.730;8.990;2022-09-01T04:10:23;26.10;;;18.37;;
6290;SDS011;3178;48.730;8.990;2022-09-01T04:12:49;24.33;;;18.30;;
6290;SDS011;3178;48.730;8.990;2022-09-01T04:15:15;26.90;;;18.80;;
6290;SDS011;3178;48.730;8.990;2022-09-01T04:17:42;23.03;;;18.80;;
6290;SDS011;3178;48.730;8.990;2022-09-01T04:20:27;24.63;;;18.87;;
6290;SDS011;3178;48.730;8.990;2022-09-01T04:22:53;23.27;;;18.70;;
6290;SDS011;3178;48.730;8.990;2022-09-01T04:25:19;28.30;;;19.47;;
6290;SDS011;3178;48.730;8.990;2022-09-01T04:27:48;21.00;;;17.23;;
6290;SDS011;3178;48.730;8.990;2022-09-01T04:30:14;24.13;;;17.70;;
6290;SDS011;3178;48.730;8.990;2022-09-01T04:32:40;21.70;;;18.33;;
6290;SDS011;3178;48.730;8.990;2022-09-01T04:35:08;26.10;;;18.53;;
6290;SDS011;3178;48.730;8.990;2022-09-01T04:37:40;31.10;;;20.57;;
6290;SDS011;3178;48.730;8.990;2022-09-01T04:40:07;31.43;;;19.33;;
6290;SDS011;3178;48.730;8.990;2022-09-01T04:42:34;25.47;;;18.77;;
6290;SDS011;3178;48.730;8.990;2022-09-01T04:45:00;22.57;;;18.50;;
6290;SDS011;3178;48.730;8.990;2022-09-01T04:47:27;23.93;;;18.77;;
6290;SDS011;3178;48.730;8.990;2022-09-01T04:49:56;27.93;;;19.13;;
6290;SDS011;3178;48.730;8.990;2022-09-01T04:52:27;26.70;;;20.50;;
6290;SDS011;3178;48.730;8.990;2022-09-01T04:54:53;22.20;;;18.33;;
6290;SDS011;3178;48.730;8.990;2022-09-01T04:57:19;30.07;;;20.73;;
6290;SDS011;3178;48.730;8.990;2022-09-01T04:59:45;29.57;;;20.13;;
6290;SDS011;3178;48.730;8.990;2022-09-01T05:02:11;24.27;;;19.87;;
6290;SDS011;3178;48.730;8.990;2022-09-01T05:04:36;22.73;;;19.67;;
6290;SDS011;3178;48.730;8.990;2022-09-01T05:07:05;24.90;;;21.00;;
6290;SDS011;3178;48.730;8.990;2022-09-01T05:09:34;31.27;;;19.33;;
6290;SDS011;3178;48.730;8.990;2022-09-01T05:12:01;25.83;;;21.10;;
6290;SDS011;3178;48.730;8.990;2022-09-01T05:14:41;27.63;;;22.57;;
6290;SDS011;3178;48.730;8.990;2022-09-01T05:17:09;22.27;;;19.17;;
6290;SDS011;3178;48.730;8.990;2022-09-01T05:19:36;30.50;;;22.80;;
6290;SDS011;3178;48.730;8.990;2022-09-01T05:22:03;25.73;;;21.80;;
6290;SDS011;3178;48.730;8.990;2022-09-01T05:24:31;29.03;;;20.57;;
6290;SDS011;3178;48.730;8.990;2022-09-01T05:26:59;29.80;;;22.57;;
6290;SDS011;3178;48.730;8.990;2022-09-01T05:29:25;25.90;;;19.67;;
6290;SDS011;3178;48.730;8.990;2022-09-01T05:31:52;28.43;;;18.10;;
6290;SDS011;3178;48.730;8.990;2022-09-01T05:34:19;22.47;;;18.77;;
6290;SDS011;3178;48.730;8.990;2022-09-01T05:36:50;23.67;;;18.60;;
6290;SDS011;3178;48.730;8.990;2022-09-01T05:39:16;23.10;;;18.90;;
6290;SDS011;3178;48.730;8.990;2022-09-01T05:41:43;24.53;;;19.40;;
6290;SDS011;3178;48.730;8.990;2022-09-01T05:44:09;26.23;;;18.83;;
6290;SDS011;3178;48.730;8.990;2022-09-01T05:46:38;25.70;;;18.77;;
6290;SDS011;3178;48.730;8.990;2022-09-01T05:49:04;27.23;;;20.27;;
6290;SDS011;3178;48.730;8.990;2022-09-01T05:51:39;24.83;;;17.80;;
6290;SDS011;3178;48.730;8.990;2022-09-01T05:54:16;19.83;;;17.20;;
6290;SDS011;3178;48.730;8.990;2022-09-01T05:56:45;25.57;;;19.73;;
6290;SDS011;3178;48.730;8.990;2022-09-01T05:59:11;22.40;;;18.07;;
6290;SDS011;3178;48.730;8.990;2022-09-01T06:01:39;21.37;;;18.47;;
6290;SDS011;3178;48.730;8.990;2022-09-01T06:04:05;23.73;;;18.30;;
6290;SDS011;3178;48.730;8.990;2022-09-01T06:06:50;23.30;;;18.30;;
6290;SDS011;3178;48.730;8.990;2022-09-01T06:09:17;25.03;;;15.87;;
6290;SDS011;3178;48.730;8.990;2022-09-01T06:11:45;33.83;;;18.27;;
6290;SDS011;3178;48.730;8.990;2022-09-01T06:14:11;28.07;;;17.50;;
6290;SDS011;3178;48.730;8.990;2022-09-01T06:16:37;26.70;;;18.40;;
6290;SDS011;3178;48.730;8.990;2022-09-01T06:19:04;21.63;;;18.47;;
6290;SDS011;3178;48.730;8.990;2022-09-01T06:21:29;18.70;;;14.63;;
6290;SDS011;3178;48.730;8.990;2022-09-01T06:23:56;17.80;;;15.13;;
6290;SDS011;3178;48.730;8.990;2022-09-01T06:26:23;19.80;;;15.17;;
6290;SDS011;3178;48.730;8.990;2022-09-01T06:28:51;20.20;;;15.77;;
6290;SDS011;3178;48.730;8.990;2022-09-01T06:31:29;20.90;;;17.20;;
6290;SDS011;3178;48.730;8.990;2022-09-01T06:34:02;18.60;;;14.40;;
6290;SDS011;3178;48.730;8.990;2022-09-01T06:36:29;16.33;;;13.07;;
6290;SDS011;3178;48.730;8.990;2022-09-01T06:38:58;16.07;;;14.33;;
6290;SDS011;3178;48.730;8.990;2022-09-01T06:41:26;16.23;;;13.73;;
6290;SDS011;3178;48.730;8.990;2022-09-01T06:43:52;18.77;;;14.10;;
6290;SDS011;3178;48.730;8.990;2022-09-01T06:46:19;19.70;;;15.73;;
6290;SDS011;3178;48.730;8.990;2022-09-01T06:48:46;17.30;;;14.50;;
6290;SDS011;3178;48.730;8.990;2022-09-01T06:51:16;16.60;;;13.73;;
6290;SDS011;3178;48.730;8.990;2022-09-01T06:53:44;15.87;;;14.17;;
6290;SDS011;3178;48.730;8.990;2022-09-01T06:56:15;16.70;;;14.17;;
6290;SDS011;3178;48.730;8.990;2022-09-01T06:58:44;19.20;;;14.47;;
6290;SDS011;3178;48.730;8.990;2022-09-01T07:01:12;20.13;;;14.90;;
6290;SDS011;3178;48.730;8.990;2022-09-01T07:03:42;19.13;;;14.30;;
6290;SDS011;3178;48.730;8.990;2022-09-01T07:06:09;18.17;;;15.33;;
6290;SDS011;3178;48.730;8.990;2022-09-01T07:08:36;25.00;;;16.17;;
6290;SDS011;3178;48.730;8.990;2022-09-01T07:11:04;16.93;;;14.70;;
6290;SDS011;3178;48.730;8.990;2022-09-01T07:13:31;19.23;;;14.87;;
6290;SDS011;3178;48.730;8.990;2022-09-01T07:15:58;16.43;;;14.63;;
6290;SDS011;3178;48.730;8.990;2022-09-01T07:18:24;19.27;;;13.60;;
6290;SDS011;3178;48.730;8.990;2022-09-01T07:20:51;14.33;;;12.80;;
6290;SDS011;3178;48.730;8.990;2022-09-01T07:23:18;13.13;;;11.63;;
6290;SDS011;3178;48.730;8.990;2022-09-01T07:25:46;14.80;;;12.17;;
6290;SDS011;3178;48.730;8.990;2022-09-01T07:28:14;13.53;;;12.10;;
6290;SDS011;3178;48.730;8.990;2022-09-01T07:30:48;16.90;;;13.13;;
6290;SDS011;3178;48.730;8.990;2022-09-01T07:33:15;19.87;;;11.83;;
6290;SDS011;3178;48.730;8.990;2022-09-01T07:35:44;14.73;;;10.40;;
6290;SDS011;3178;48.730;8.990;2022-09-01T07:38:10;12.57;;;9.80;;
6290;SDS011;3178;48.730;8.990;2022-09-01T07:40:38;16.37;;;11.53;;
6290;SDS011;3178;48.730;8.990;2022-09-01T07:43:05;9.93;;;8.57;;
6290;SDS011;3178;48.730;8.990;2022-09-01T07:45:34;14.10;;;9.63;;
6290;SDS011;3178;48.730;8.990;2022-09-01T07:48:02;11.13;;;8.97;;
6290;SDS011;3178;48.730;8.990;2022-09-01T07:50:31;10.53;;;8.67;;
6290;SDS011;3178;48.730;8.990;2022-09-01T07:52:58;8.03;;;7.23;;
6290;SDS011;3178;48.730;8.990;2022-09-01T07:55:25;7.73;;;7.03;;
6290;SDS011;3178;48.730;8.990;2022-09-01T07:57:52;8.60;;;7.77;;
6290;SDS011;3178;48.730;8.990;2022-09-01T08:00:18;12.20;;;8.17;;
6290;SDS011;3178;48.730;8.990;2022-09-01T08:02:46;8.70;;;7.30;;
6290;SDS011;3178;48.730;8.990;2022-09-01T08:05:13;10.33;;;8.07;;
6290;SDS011;3178;48.730;8.990;2022-09-01T08:07:46;11.37;;;7.83;;
6290;SDS011;3178;48.730;8.990;2022-09-01T08:10:12;8.30;;;7.40;;
6290;SDS011;3178;48.730;8.990;2022-09-01T08:12:39;9.00;;;7.60;;
6290;SDS011;3178;48.730;8.990;2022-09-01T08:15:05;7.40;;;6.67;;
6290;SDS011;3178;48.730;8.990;2022-09-01T08:17:32;8.13;;;6.37;;
6290;SDS011;3178;48.730;8.990;2022-09-01T08:20:00;6.60;;;5.60;;
6290;SDS011;3178;48.730;8.990;2022-09-01T08:22:26;6.00;;;5.40;;
6290;SDS011;3178;48.730;8.990;2022-09-01T08:24:52;8.07;;;7.27;;
6290;SDS011;3178;48.730;8.990;2022-09-01T08:27:18;9.03;;;7.97;;
6290;SDS011;3178;48.730;8.990;2022-09-01T08:29:43;9.03;;;7.50;;
6290;SDS011;3178;48.730;8.990;2022-09-01T08:32:09;11.47;;;7.47;;
6290;SDS011;3178;48.730;8.990;2022-09-01T08:34:35;11.30;;;8.10;;
6290;SDS011;3178;48.730;8.990;2022-09-01T08:37:01;17.70;;;10.40;;
6290;SDS011;3178;48.730;8.990;2022-09-01T08:39:28;11.20;;;9.10;;
6290;SDS011;3178;48.730;8.990;2022-09-01T08:47:27;16.80;;;11.70;;
6290;SDS011;3178;48.730;8.990;2022-09-01T08:49:53;14.20;;;11.33;;
6290;SDS011;3178;48.730;8.990;2022-09-01T08:52:30;13.20;;;10.33;;
6290;SDS011;3178;48.730;8.990;2022-09-01T08:55:02;11.67;;;9.17;;
6290;SDS011;3178;48.730;8.990;2022-09-01T08:57:34;12.23;;;10.63;;
6290;SDS011;3178;48.730;8.990;2022-09-01T09:00:02;17.13;;;10.80;;
6290;SDS011;3178;48.730;8.990;2022-09-01T09:10:04;13.90;;;10.77;;
6290;SDS011;3178;48.730;8.990;2022-09-01T09:17:51;9.80;;;7.73;;
6290;SDS011;3178;48.730;8.990;2022-09-01T09:20:30;9.33;;;7.20;;
6290;SDS011;3178;48.730;8.990;2022-09-01T09:22:56;10.70;;;6.93;;
6290;SDS011;3178;48.730;8.990;2022-09-01T09:25:22;9.23;;;7.40;;
6290;SDS011;3178;48.730;8.990;2022-09-01T09:27:48;9.47;;;7.00;;
6290;SDS011;3178;48.730;8.990;2022-09-01T09:30:19;10.80;;;7.50;;
6290;SDS011;3178;48.730;8.990;2022-09-01T09:37:50;7.37;;;5.93;;
6290;SDS011;3178;48.730;8.990;2022-09-01T09:45:23;11.07;;;6.40;;
6290;SDS011;3178;48.730;8.990;2022-09-01T09:47:51;5.73;;;5.13;;
6290;SDS011;3178;48.730;8.990;2022-09-01T09:53:14;12.03;;;5.10;;
6290;SDS011;3178;48.730;8.990;2022-09-01T09:58:33;5.60;;;4.97;;
6290;SDS011;3178;48.730;8.990;2022-09-01T10:01:03;5.50;;;4.90;;
6290;SDS011;3178;48.730;8.990;2022-09-01T10:03:33;5.40;;;4.13;;
6290;SDS011;3178;48.730;8.990;2022-09-01T10:06:01;6.60;;;4.50;;
6290;SDS011;3178;48.730;8.990;2022-09-01T10:10:58;7.20;;;5.13;;
6290;SDS011;3178;48.730;8.990;2022-09-01T10:13:25;4.90;;;4.33;;
6290;SDS011;3178;48.730;8.990;2022-09-01T10:15:55;5.10;;;4.47;;
6290;SDS011;3178;48.730;8.990;2022-09-01T10:18:24;4.90;;;4.23;;
6290;SDS011;3178;48.730;8.990;2022-09-01T10:23:29;6.67;;;5.23;;
6290;SDS011;3178;48.730;8.990;2022-09-01T10:25:59;5.87;;;4.60;;
6290;SDS011;3178;48.730;8.990;2022-09-01T10:28:29;7.73;;;4.80;;
6290;SDS011;3178;48.730;8.990;2022-09-01T10:30:57;6.27;;;4.13;;
6290;SDS011;3178;48.730;8.990;2022-09-01T10:33:23;6.47;;;4.93;;
6290;SDS011;3178;48.730;8.990;2022-09-01T10:35:50;7.00;;;4.43;;
6290;SDS011;3178;48.730;8.990;2022-09-01T10:40:46;10.80;;;4.80;;
6290;SDS011;3178;48.730;8.990;2022-09-01T10:46:00;5.90;;;3.80;;
6290;SDS011;3178;48.730;8.990;2022-09-01T10:48:35;4.50;;;4.07;;
6290;SDS011;3178;48.730;8.990;2022-09-01T10:53:38;3.77;;;3.47;;
6290;SDS011;3178;48.730;8.990;2022-09-01T11:04:20;3.97;;;3.50;;
6290;SDS011;3178;48.730;8.990;2022-09-01T11:06:54;4.70;;;3.60;;
6290;SDS011;3178;48.730;8.990;2022-09-01T11:14:55;4.13;;;3.37;;
6290;SDS011;3178;48.730;8.990;2022-09-01T11:17:29;4.33;;;3.83;;
6290;SDS011;3178;48.730;8.990;2022-09-01T11:22:40;4.53;;;3.57;;
6290;SDS011;3178;48.730;8.990;2022-09-01T11:30:17;4.43;;;3.33;;
6290;SDS011;3178;48.730;8.990;2022-09-01T11:32:47;3.90;;;3.53;;
6290;SDS011;3178;48.730;8.990;2022-09-01T11:35:18;4.00;;;3.13;;
6290;SDS011;3178;48.730;8.990;2022-09-01T11:37:49;5.53;;;2.80;;
6290;SDS011;3178;48.730;8.990;2022-09-01T11:40:20;3.23;;;3.00;;
6290;SDS011;3178;48.730;8.990;2022-09-01T11:42:53;4.47;;;3.33;;
6290;SDS011;3178;48.730;8.990;2022-09-01T11:45:23;3.20;;;3.00;;
6290;SDS011;3178;48.730;8.990;2022-09-01T11:47:59;3.53;;;3.03;;
6290;SDS011;3178;48.730;8.990;2022-09-01T11:50:31;6.97;;;2.90;;
6290;SDS011;3178;48.730;8.990;2022-09-01T11:52:59;3.07;;;2.60;;
6290;SDS011;3178;48.730;8.990;2022-09-01T11:58:09;2.77;;;2.53;;
6290;SDS011;3178;48.730;8.990;2022-09-01T12:00:38;3.33;;;2.43;;
6290;SDS011;3178;48.730;8.990;2022-09-01T12:03:09;3.83;;;3.53;;
6290;SDS011;3178;48.730;8.990;2022-09-01T12:05:44;3.60;;;2.70;;
6290;SDS011;3178;48.730;8.990;2022-09-01T12:08:17;4.27;;;3.87;;
6290;SDS011;3178;48.730;8.990;2022-09-01T12:10:43;3.33;;;3.03;;
6290;SDS011;3178;48.730;8.990;2022-09-01T12:15:41;6.23;;;3.50;;
6290;SDS011;3178;48.730;8.990;2022-09-01T12:18:10;7.43;;;3.87;;
6290;SDS011;3178;48.730;8.990;2022-09-01T12:20:43;6.60;;;3.63;;
6290;SDS011;3178;48.730;8.990;2022-09-01T12:23:18;3.50;;;3.20;;
6290;SDS011;3178;48.730;8.990;2022-09-01T12:25:47;3.80;;;2.73;;
6290;SDS011;3178;48.730;8.990;2022-09-01T12:28:13;2.33;;;2.13;;
6290;SDS011;3178;48.730;8.990;2022-09-01T12:30:39;2.57;;;2.37;;
6290;SDS011;3178;48.730;8.990;2022-09-01T12:33:06;4.07;;;2.80;;
6290;SDS011;3178;48.730;8.990;2022-09-01T12:35:34;6.07;;;3.00;;
6290;SDS011;3178;48.730;8.990;2022-09-01T12:40:44;3.93;;;3.53;;
6290;SDS011;3178;48.730;8.990;2022-09-01T12:43:11;3.70;;;3.00;;
6290;SDS011;3178;48.730;8.990;2022-09-01T12:45:55;4.40;;;2.57;;
6290;SDS011;3178;48.730;8.990;2022-09-01T12:48:25;3.93;;;3.10;;
6290;SDS011;3178;48.730;8.990;2022-09-01T12:50:54;4.70;;;3.33;;
6290;SDS011;3178;48.730;8.990;2022-09-01T12:53:27;4.07;;;3.13;;
6290;SDS011;3178;48.730;8.990;2022-09-01T12:56:04;5.03;;;3.37;;
6290;SDS011;3178;48.730;8.990;2022-09-01T12:58:41;3.47;;;3.17;;
6290;SDS011;3178;48.730;8.990;2022-09-01T13:01:22;4.30;;;3.33;;
6290;SDS011;3178;48.730;8.990;2022-09-01T13:06:53;5.63;;;2.80;;
6290;SDS011;3178;48.730;8.990;2022-09-01T13:09:21;5.53;;;3.20;;
6290;SDS011;3178;48.730;8.990;2022-09-01T13:11:47;3.67;;;3.37;;
6290;SDS011;3178;48.730;8.990;2022-09-01T13:14:14;4.60;;;3.27;;
6290;SDS011;3178;48.730;8.990;2022-09-01T13:16:40;4.27;;;3.13;;
6290;SDS011;3178;48.730;8.990;2022-09-01T13:19:06;7.30;;;3.07;;
6290;SDS011;3178;48.730;8.990;2022-09-01T13:21:32;4.70;;;2.87;;
6290;SDS011;3178;48.730;8.990;2022-09-01T13:23:59;3.13;;;2.83;;
6290;SDS011;3178;48.730;8.990;2022-09-01T13:26:25;3.70;;;2.90;;
6290;SDS011;3178;48.730;8.990;2022-09-01T13:28:55;4.23;;;3.30;;
6290;SDS011;3178;48.730;8.990;2022-09-01T13:31:21;4.00;;;3.20;;
6290;SDS011;3178;48.730;8.990;2022-09-01T13:33:47;5.20;;;3.43;;
6290;SDS011;3178;48.730;8.990;2022-09-01T13:36:13;3.37;;;3.07;;
6290;SDS011;3178;48.730;8.990;2022-09-01T13:38:39;6.67;;;3.47;;
6290;SDS011;3178;48.730;8.990;2022-09-01T13:41:04;5.97;;;3.70;;
6290;SDS011;3178;48.730;8.990;2022-09-01T13:43:30;5.43;;;3.60;;
6290;SDS011;3178;48.730;8.990;2022-09-01T13:45:58;5.93;;;3.80;;
6290;SDS011;3178;48.730;8.990;2022-09-01T13:48:23;3.73;;;2.97;;
6290;SDS011;3178;48.730;8.990;2022-09-01T13:50:49;7.50;;;3.23;;
6290;SDS011;3178;48.730;8.990;2022-09-01T13:53:16;4.57;;;3.60;;
6290;SDS011;3178;48.730;8.990;2022-09-01T13:55:43;5.73;;;3.83;;
6290;SDS011;3178;48.730;8.990;2022-09-01T13:58:08;3.37;;;3.00;;
6290;SDS011;3178;48.730;8.990;2022-09-01T14:00:37;3.20;;;2.90;;
6290;SDS011;3178;48.730;8.990;2022-09-01T14:03:06;4.60;;;2.80;;
6290;SDS011;3178;48.730;8.990;2022-09-01T14:05:35;3.20;;;2.90;;
6290;SDS011;3178;48.730;8.990;2022-09-01T14:08:02;3.10;;;2.80;;
6290;SDS011;3178;48.730;8.990;2022-09-01T14:10:29;7.13;;;2.67;;
6290;SDS011;3178;48.730;8.990;2022-09-01T14:12:56;2.90;;;2.70;;
6290;SDS011;3178;48.730;8.990;2022-09-01T14:15:22;3.70;;;2.87;;
6290;SDS011;3178;48.730;8.990;2022-09-01T14:17:49;2.70;;;2.50;;
6290;SDS011;3178;48.730;8.990;2022-09-01T14:20:18;4.23;;;2.90;;
6290;SDS011;3178;48.730;8.990;2022-09-01T14:22:46;2.83;;;2.63;;
6290;SDS011;3178;48.730;8.990;2022-09-01T14:25:12;4.13;;;3.13;;
6290;SDS011;3178;48.730;8.990;2022-09-01T14:27:39;5.87;;;3.03;;
6290;SDS011;3178;48.730;8.990;2022-09-01T14:30:07;3.00;;;2.70;;
6290;SDS011;3178;48.730;8.990;2022-09-01T14:32:35;5.00;;;3.70;;
6290;SDS011;3178;48.730;8.990;2022-09-01T14:35:01;16.73;;;3.10;;
6290;SDS011;3178;48.730;8.990;2022-09-01T14:37:26;4.30;;;3.43;;
6290;SDS011;3178;48.730;8.990;2022-09-01T14:39:53;4.77;;;3.77;;
6290;SDS011;3178;48.730;8.990;2022-09-01T14:42:20;4.00;;;3.57;;
6290;SDS011;3178;48.730;8.990;2022-09-01T14:44:49;6.80;;;4.00;;
6290;SDS011;3178;48.730;8.990;2022-09-01T14:47:15;4.73;;;3.80;;
6290;SDS011;3178;48.730;8.990;2022-09-01T14:49:41;5.40;;;4.03;;
6290;SDS011;3178;48.730;8.990;2022-09-01T14:52:07;6.20;;;4.40;;
6290;SDS011;3178;48.730;8.990;2022-09-01T14:54:34;4.57;;;3.80;;
6290;SDS011;3178;48.730;8.990;2022-09-01T14:57:00;4.27;;;3.73;;
6290;SDS011;3178;48.730;8.990;2022-09-01T14:59:26;2.80;;;2.57;;
6290;SDS011;3178;48.730;8.990;2022-09-01T15:01:52;3.80;;;3.40;;
6290;SDS011;3178;48.730;8.990;2022-09-01T15:04:18;4.57;;;3.17;;
6290;SDS011;3178;48.730;8.990;2022-09-01T15:06:44;3.23;;;2.93;;
6290;SDS011;3178;48.730;8.990;2022-09-01T15:09:09;3.17;;;2.87;;
6290;SDS011;3178;48.730;8.990;2022-09-01T15:11:35;3.60;;;3.30;;
6290;SDS011;3178;48.730;8.990;2022-09-01T15:14:00;2.80;;;2.60;;
6290;SDS011;3178;48.730;8.990;2022-09-01T15:16:26;6.60;;;3.20;;
6290;SDS011;3178;48.730;8.990;2022-09-01T15:18:52;11.10;;;3.13;;
6290;SDS011;3178;48.730;8.990;2022-09-01T15:21:29;3.63;;;2.87;;
6290;SDS011;3178;48.730;8.990;2022-09-01T15:23:57;9.67;;;3.03;;
6290;SDS011;3178;48.730;8.990;2022-09-01T15:26:24;12.00;;;3.13;;
6290;SDS011;3178;48.730;8.990;2022-09-01T15:28:50;11.67;;;3.23;;
6290;SDS011;3178;48.730;8.990;2022-09-01T15:31:17;7.17;;;3.40;;
6290;SDS011;3178;48.730;8.990;2022-09-01T15:33:43;4.73;;;2.83;;
6290;SDS011;3178;48.730;8.990;2022-09-01T15:36:15;5.53;;;2.93;;
6290;SDS011;3178;48.730;8.990;2022-09-01T15:38:42;3.20;;;2.90;;
6290;SDS011;3178;48.730;8.990;2022-09-01T15:41:08;8.23;;;2.80;;
6290;SDS011;3178;48.730;8.990;2022-09-01T15:43:33;3.07;;;2.77;;
6290;SDS011;3178;48.730;8.990;2022-09-01T15:46:02;8.70;;;3.27;;
6290;SDS011;3178;48.730;8.990;2022-09-01T15:48:28;7.27;;;3.30;;
6290;SDS011;3178;48.730;8.990;2022-09-01T15:51:17;5.07;;;3.10;;
6290;SDS011;3178;48.730;8.990;2022-09-01T15:54:03;4.83;;;3.20;;
6290;SDS011;3178;48.730;8.990;2022-09-01T15:56:34;2.70;;;2.50;;
6290;SDS011;3178;48.730;8.990;2022-09-01T15:59:00;6.27;;;3.40;;
6290;SDS011;3178;48.730;8.990;2022-09-01T16:01:26;8.60;;;3.87;;
6290;SDS011;3178;48.730;8.990;2022-09-01T16:03:53;3.63;;;3.00;;
6290;SDS011;3178;48.730;8.990;2022-09-01T16:06:20;3.03;;;2.70;;
6290;SDS011;3178;48.730;8.990;2022-09-01T16:08:46;3.13;;;2.83;;
6290;SDS011;3178;48.730;8.990;2022-09-01T16:11:13;4.07;;;3.60;;
6290;SDS011;3178;48.730;8.990;2022-09-01T16:13:39;4.50;;;3.00;;
6290;SDS011;3178;48.730;8.990;2022-09-01T16:18:58;3.57;;;3.23;;
6290;SDS011;3178;48.730;8.990;2022-09-01T16:21:33;3.10;;;2.80;;
6290;SDS011;3178;48.730;8.990;2022-09-01T16:24:13;3.70;;;3.40;;
6290;SDS011;3178;48.730;8.990;2022-09-01T16:26:39;6.63;;;2.90;;
6290;SDS011;3178;48.730;8.990;2022-09-01T16:29:10;3.70;;;3.07;;
6290;SDS011;3178;48.730;8.990;2022-09-01T16:31:40;4.20;;;3.10;;
6290;SDS011;3178;48.730;8.990;2022-09-01T16:34:15;4.73;;;3.80;;
6290;SDS011;3178;48.730;8.990;2022-09-01T16:36:52;4.63;;;3.03;;
6290;SDS011;3178;48.730;8.990;2022-09-01T16:39:39;3.63;;;3.17;;